sensor_id;sensor_type;location;lat;lon;timestamp;pressure;altitude;pressure_sealevel;temperature;humidity
54854;BME280;40747;49.480;8.658;2022-10-16T00:00:34;100080.59;;;16.45;100.00
54854;BME280;40747;49.480;8.658;2022-10-16T00:03:00;100073.09;;;16.51;100.00
54854;BME280;40747;49.480;8.658;2022-10-16T00:05:26;100076.69;;;16.50;100.00
54854;BME280;40747;49.480;8.658;2022-10-16T00:07:52;100077.19;;;16.57;100.00
54854;BME280;40747;49.480;8.658;2022-10-16T00:10:18;100077.13;;;16.59;100.00
54854;BME280;40747;49.480;8.658;2022-10-16T00:12:43;100063.66;;;16.46;100.00
54854;BME280;40747;49.480;8.658;2022-10-16T00:15:09;100083.94;;;16.48;100.00
54854;BME280;40747;49.480;8.658;2022-10-16T00:17:35;100067.88;;;16.50;100.00
54854;BME280;40747;49.480;8.658;2022-10-16T00:20:01;100062.81;;;16.45;100.00
54854;BME280;40747;49.480;8.658;2022-10-16T00:22:26;100068.72;;;16.50;100.00
54854;BME280;40747;49.480;8.658;2022-10-16T00:24:52;100073.88;;;16.53;100.00
54854;BME280;40747;49.480;8.658;2022-10-16T00:27:18;100074.72;;;16.54;100.00
54854;BME280;40747;49.480;8.658;2022-10-16T00:29:44;100070.91;;;16.44;100.00
54854;BME280;40747;49.480;8.658;2022-10-16T00:32:10;100084.59;;;16.52;100.00
54854;BME280;40747;49.480;8.658;2022-10-16T00:34:35;100086.50;;;16.50;100.00
54854;BME280;40747;49.480;8.658;2022-10-16T00:37:02;100091.63;;;16.53;100.00
54854;BME280;40747;49.480;8.658;2022-10-16T00:39:28;100079.19;;;16.53;100.00
54854;BME280;40747;49.480;8.658;2022-10-16T00:41:54;100078.97;;;16.42;100.00
54854;BME280;40747;49.480;8.658;2022-10-16T00:47:14;100094.47;;;16.50;100.00
54854;BME280;40747;49.480;8.658;2022-10-16T00:49:41;100097.00;;;16.37;100.00
54854;BME280;40747;49.480;8.658;2022-10-16T00:52:06;100083.03;;;16.33;100.00
54854;BME280;40747;49.480;8.658;2022-10-16T00:54:32;100086.44;;;16.35;100.00
54854;BME280;40747;49.480;8.658;2022-10-16T00:57:01;100095.09;;;16.39;100.00
54854;BME280;40747;49.480;8.658;2022-10-16T00:59:33;100100.88;;;16.46;100.00
54854;BME280;40747;49.480;8.658;2022-10-16T01:02:00;100112.75;;;16.40;100.00
54854;BME280;40747;49.480;8.658;2022-10-16T01:04:26;100105.91;;;16.36;100.00
54854;BME280;40747;49.480;8.658;2022-10-16T01:07:52;100103.25;;;16.36;100.00
54854;BME280;40747;49.480;8.658;2022-10-16T01:18:10;100095.09;;;16.39;100.00
54854;BME280;40747;49.480;8.658;2022-10-16T01:20:43;100096.59;;;16.43;100.00
54854;BME280;40747;49.480;8.658;2022-10-16T01:23:36;100101.28;;;16.40;100.00
54854;BME280;40747;49.480;8.658;2022-10-16T01:31:39;100108.25;;;16.57;100.00
54854;BME280;40747;49.480;8.658;2022-10-16T01:34:10;100113.31;;;16.61;100.00
54854;BME280;40747;49.480;8.658;2022-10-16T01:36:39;100107.41;;;16.56;100.00
54854;BME280;40747;49.480;8.658;2022-10-16T01:39:09;100105.84;;;16.52;100.00
54854;BME280;40747;49.480;8.658;2022-10-16T01:41:44;100117.16;;;16.55;100.00
54854;BME280;40747;49.480;8.658;2022-10-16T01:44:19;100116.72;;;16.63;100.00
54854;BME280;40747;49.480;8.658;2022-10-16T01:46:47;100096.34;;;16.48;100.00
54854;BME280;40747;49.480;8.658;2022-10-16T01:49:14;100123.25;;;16.58;100.00
54854;BME280;40747;49.480;8.658;2022-10-16T01:51:44;100130.38;;;16.57;100.00
54854;BME280;40747;49.480;8.658;2022-10-16T01:54:11;100122.31;;;16.59;100.00
54854;BME280;40747;49.480;8.658;2022-10-16T01:56:38;100130.66;;;16.52;100.00
54854;BME280;40747;49.480;8.658;2022-10-16T01:59:11;100132.75;;;16.62;100.00
54854;BME280;40747;49.480;8.658;2022-10-16T02:01:40;100133.91;;;16.58;100.00
54854;BME280;40747;49.480;8.658;2022-10-16T02:04:51;100126.28;;;16.51;100.00
54854;BME280;40747;49.480;8.658;2022-10-16T02:07:08;100124.78;;;16.62;100.00
54854;BME280;40747;49.480;8.658;2022-10-16T02:09:34;100125.16;;;16.70;100.00
54854;BME280;40747;49.480;8.658;2022-10-16T02:12:06;100122.25;;;16.75;100.00
54854;BME280;40747;49.480;8.658;2022-10-16T02:14:34;100127.94;;;16.68;100.00
54854;BME280;40747;49.480;8.658;2022-10-16T02:17:13;100127.00;;;16.69;100.00
54854;BME280;40747;49.480;8.658;2022-10-16T02:19:39;100126.53;;;16.77;100.00
54854;BME280;40747;49.480;8.658;2022-10-16T02:22:07;100122.34;;;16.73;100.00
54854;BME280;40747;49.480;8.658;2022-10-16T02:24:43;100125.28;;;16.68;100.00
54854;BME280;40747;49.480;8.658;2022-10-16T02:27:24;100115.13;;;16.75;100.00
54854;BME280;40747;49.480;8.658;2022-10-16T02:30:03;100115.28;;;16.58;100.00
54854;BME280;40747;49.480;8.658;2022-10-16T02:32:34;100123.47;;;16.69;100.00
54854;BME280;40747;49.480;8.658;2022-10-16T02:35:01;100109.09;;;16.57;100.00
54854;BME280;40747;49.480;8.658;2022-10-16T02:37:27;100106.38;;;16.59;100.00
54854;BME280;40747;49.480;8.658;2022-10-16T02:39:54;100103.41;;;16.63;100.00
54854;BME280;40747;49.480;8.658;2022-10-16T02:42:20;100111.94;;;16.54;100.00
54854;BME280;40747;49.480;8.658;2022-10-16T02:44:45;100115.44;;;16.54;100.00
54854;BME280;40747;49.480;8.658;2022-10-16T02:47:11;100112.78;;;16.54;100.00
54854;BME280;40747;49.480;8.658;2022-10-16T02:49:37;100109.88;;;16.59;100.00
54854;BME280;40747;49.480;8.658;2022-10-16T02:52:02;100109.16;;;16.41;100.00
54854;BME280;40747;49.480;8.658;2022-10-16T02:54:28;100103.97;;;16.54;100.00
54854;BME280;40747;49.480;8.658;2022-10-16T02:56:53;100098.16;;;16.47;100.00
54854;BME280;40747;49.480;8.658;2022-10-16T02:59:18;100128.38;;;16.61;100.00
54854;BME280;40747;49.480;8.658;2022-10-16T03:01:44;100106.72;;;16.52;100.00
54854;BME280;40747;49.480;8.658;2022-10-16T03:04:09;100128.97;;;16.66;100.00
54854;BME280;40747;49.480;8.658;2022-10-16T03:06:34;100136.78;;;16.69;100.00
54854;BME280;40747;49.480;8.658;2022-10-16T03:09:00;100137.53;;;16.71;100.00
54854;BME280;40747;49.480;8.658;2022-10-16T03:11:25;100137.63;;;16.69;100.00
54854;BME280;40747;49.480;8.658;2022-10-16T03:13:51;100134.72;;;16.74;100.00
54854;BME280;40747;49.480;8.658;2022-10-16T03:16:17;100125.16;;;16.70;100.00
54854;BME280;40747;49.480;8.658;2022-10-16T03:18:42;100117.75;;;16.61;100.00
54854;BME280;40747;49.480;8.658;2022-10-16T03:21:07;100124.06;;;16.74;100.00
54854;BME280;40747;49.480;8.658;2022-10-16T03:23:32;100130.69;;;16.67;100.00
54854;BME280;40747;49.480;8.658;2022-10-16T03:25:57;100120.50;;;16.59;100.00
54854;BME280;40747;49.480;8.658;2022-10-16T03:28:23;100121.44;;;16.58;100.00
54854;BME280;40747;49.480;8.658;2022-10-16T03:30:49;100130.94;;;16.62;100.00
54854;BME280;40747;49.480;8.658;2022-10-16T03:33:14;100134.84;;;16.57;100.00
54854;BME280;40747;49.480;8.658;2022-10-16T03:35:39;100129.84;;;16.66;100.00
54854;BME280;40747;49.480;8.658;2022-10-16T03:38:04;100132.41;;;16.68;100.00
54854;BME280;40747;49.480;8.658;2022-10-16T03:40:30;100116.81;;;16.62;100.00
54854;BME280;40747;49.480;8.658;2022-10-16T03:42:57;100117.97;;;16.72;100.00
54854;BME280;40747;49.480;8.658;2022-10-16T03:45:23;100114.84;;;16.65;100.00
54854;BME280;40747;49.480;8.658;2022-10-16T03:47:48;100117.13;;;16.71;100.00
54854;BME280;40747;49.480;8.658;2022-10-16T03:50:14;100120.25;;;16.64;100.00
54854;BME280;40747;49.480;8.658;2022-10-16T03:52:39;100122.50;;;16.70;100.00
54854;BME280;40747;49.480;8.658;2022-10-16T03:55:04;100134.13;;;16.69;100.00
54854;BME280;40747;49.480;8.658;2022-10-16T03:57:30;100138.22;;;16.75;100.00
54854;BME280;40747;49.480;8.658;2022-10-16T03:59:56;100143.44;;;16.76;100.00
54854;BME280;40747;49.480;8.658;2022-10-16T04:02:21;100129.97;;;16.79;100.00
54854;BME280;40747;49.480;8.658;2022-10-16T04:04:46;100144.00;;;16.81;100.00
54854;BME280;40747;49.480;8.658;2022-10-16T04:07:11;100151.94;;;16.83;100.00
54854;BME280;40747;49.480;8.658;2022-10-16T04:09:37;100149.16;;;16.84;100.00
54854;BME280;40747;49.480;8.658;2022-10-16T04:12:02;100155.34;;;16.85;100.00
54854;BME280;40747;49.480;8.658;2022-10-16T04:14:28;100147.81;;;16.77;100.00
54854;BME280;40747;49.480;8.658;2022-10-16T04:16:53;100154.59;;;16.83;100.00
54854;BME280;40747;49.480;8.658;2022-10-16T04:19:18;100150.88;;;16.85;100.00
54854;BME280;40747;49.480;8.658;2022-10-16T04:21:44;100153.44;;;16.87;100.00
54854;BME280;40747;49.480;8.658;2022-10-16T04:24:09;100146.03;;;16.78;100.00
54854;BME280;40747;49.480;8.658;2022-10-16T04:26:36;100158.09;;;16.83;100.00
54854;BME280;40747;49.480;8.658;2022-10-16T04:29:01;100152.66;;;16.85;100.00
54854;BME280;40747;49.480;8.658;2022-10-16T04:31:27;100166.06;;;16.83;100.00
54854;BME280;40747;49.480;8.658;2022-10-16T04:33:52;100174.25;;;16.80;100.00
54854;BME280;40747;49.480;8.658;2022-10-16T04:36:17;100181.94;;;16.85;100.00
54854;BME280;40747;49.480;8.658;2022-10-16T04:38:42;100175.94;;;16.81;100.00
54854;BME280;40747;49.480;8.658;2022-10-16T04:41:08;100164.19;;;16.85;100.00
54854;BME280;40747;49.480;8.658;2022-10-16T04:43:33;100164.09;;;16.87;100.00
54854;BME280;40747;49.480;8.658;2022-10-16T04:45:59;100164.00;;;16.88;100.00
54854;BME280;40747;49.480;8.658;2022-10-16T04:48:24;100168.53;;;16.86;100.00
54854;BME280;40747;49.480;8.658;2022-10-16T04:50:50;100164.25;;;16.84;100.00
54854;BME280;40747;49.480;8.658;2022-10-16T04:53:15;100159.72;;;16.86;100.00
54854;BME280;40747;49.480;8.658;2022-10-16T04:55:42;100150.69;;;16.88;100.00
54854;BME280;40747;49.480;8.658;2022-10-16T04:58:07;100166.84;;;16.85;100.00
54854;BME280;40747;49.480;8.658;2022-10-16T05:00:33;100157.25;;;16.83;100.00
54854;BME280;40747;49.480;8.658;2022-10-16T05:02:59;100168.38;;;16.90;100.00
54854;BME280;40747;49.480;8.658;2022-10-16T05:05:26;100154.91;;;16.93;100.00
54854;BME280;40747;49.480;8.658;2022-10-16T05:07:51;100146.50;;;16.84;100.00
54854;BME280;40747;49.480;8.658;2022-10-16T05:10:17;100156.38;;;16.82;100.00
54854;BME280;40747;49.480;8.658;2022-10-16T05:12:42;100148.28;;;16.84;100.00
54854;BME280;40747;49.480;8.658;2022-10-16T05:15:08;100156.72;;;16.92;100.00
54854;BME280;40747;49.480;8.658;2022-10-16T05:17:34;100163.03;;;16.90;100.00
54854;BME280;40747;49.480;8.658;2022-10-16T05:19:59;100169.88;;;16.79;100.00
54854;BME280;40747;49.480;8.658;2022-10-16T05:22:25;100152.88;;;16.82;100.00
54854;BME280;40747;49.480;8.658;2022-10-16T05:24:50;100162.56;;;16.83;100.00
54854;BME280;40747;49.480;8.658;2022-10-16T05:27:15;100151.53;;;16.89;100.00
54854;BME280;40747;49.480;8.658;2022-10-16T05:29:45;100161.00;;;16.95;100.00
54854;BME280;40747;49.480;8.658;2022-10-16T05:32:12;100148.44;;;16.97;100.00
54854;BME280;40747;49.480;8.658;2022-10-16T05:34:37;100141.19;;;16.84;100.00
54854;BME280;40747;49.480;8.658;2022-10-16T05:37:02;100139.72;;;16.79;100.00
54854;BME280;40747;49.480;8.658;2022-10-16T05:39:28;100153.63;;;16.84;100.00
54854;BME280;40747;49.480;8.658;2022-10-16T05:41:53;100152.19;;;16.78;100.00
54854;BME280;40747;49.480;8.658;2022-10-16T05:44:18;100147.81;;;16.77;100.00
54854;BME280;40747;49.480;8.658;2022-10-16T05:46:46;100146.88;;;16.78;100.00
54854;BME280;40747;49.480;8.658;2022-10-16T05:49:11;100140.78;;;16.76;100.00
54854;BME280;40747;49.480;8.658;2022-10-16T05:51:36;100143.84;;;16.84;100.00
54854;BME280;40747;49.480;8.658;2022-10-16T05:54:01;100152.56;;;16.86;100.00
54854;BME280;40747;49.480;8.658;2022-10-16T05:56:27;100154.50;;;16.84;100.00
54854;BME280;40747;49.480;8.658;2022-10-16T05:58:52;100173.63;;;16.75;100.00
54854;BME280;40747;49.480;8.658;2022-10-16T06:01:18;100179.56;;;16.80;100.00
54854;BME280;40747;49.480;8.658;2022-10-16T06:03:44;100203.50;;;16.80;100.00
54854;BME280;40747;49.480;8.658;2022-10-16T06:06:14;100195.44;;;16.82;100.00
54854;BME280;40747;49.480;8.658;2022-10-16T06:08:41;100187.25;;;16.85;100.00
54854;BME280;40747;49.480;8.658;2022-10-16T06:11:09;100184.50;;;16.86;100.00
54854;BME280;40747;49.480;8.658;2022-10-16T06:13:35;100193.47;;;16.69;100.00
54854;BME280;40747;49.480;8.658;2022-10-16T06:16:00;100185.25;;;16.74;100.00
54854;BME280;40747;49.480;8.658;2022-10-16T06:18:27;100198.31;;;16.63;100.00
54854;BME280;40747;49.480;8.658;2022-10-16T06:20:53;100201.72;;;16.65;100.00
54854;BME280;40747;49.480;8.658;2022-10-16T06:23:18;100197.56;;;16.75;100.00
54854;BME280;40747;49.480;8.658;2022-10-16T06:25:44;100218.19;;;16.71;100.00
54854;BME280;40747;49.480;8.658;2022-10-16T06:28:09;100213.56;;;16.59;100.00
54854;BME280;40747;49.480;8.658;2022-10-16T06:30:34;100223.50;;;16.71;100.00
54854;BME280;40747;49.480;8.658;2022-10-16T06:32:59;100224.84;;;16.79;100.00
54854;BME280;40747;49.480;8.658;2022-10-16T06:35:25;100211.66;;;16.77;100.00
54854;BME280;40747;49.480;8.658;2022-10-16T06:37:52;100213.16;;;16.81;100.00
54854;BME280;40747;49.480;8.658;2022-10-16T06:40:17;100213.84;;;16.85;100.00
54854;BME280;40747;49.480;8.658;2022-10-16T06:42:42;100213.75;;;16.86;100.00
54854;BME280;40747;49.480;8.658;2022-10-16T06:45:08;100224.78;;;16.80;100.00
54854;BME280;40747;49.480;8.658;2022-10-16T06:47:33;100214.78;;;16.84;100.00
54854;BME280;40747;49.480;8.658;2022-10-16T06:49:59;100220.78;;;16.87;100.00
54854;BME280;40747;49.480;8.658;2022-10-16T06:52:24;100225.28;;;16.87;100.00
54854;BME280;40747;49.480;8.658;2022-10-16T06:54:50;100227.25;;;16.83;100.00
54854;BME280;40747;49.480;8.658;2022-10-16T06:57:15;100224.84;;;16.95;100.00
54854;BME280;40747;49.480;8.658;2022-10-16T06:59:41;100237.03;;;16.99;100.00
54854;BME280;40747;49.480;8.658;2022-10-16T07:02:07;100232.06;;;16.93;100.00
54854;BME280;40747;49.480;8.658;2022-10-16T07:04:33;100247.16;;;16.92;100.00
54854;BME280;40747;49.480;8.658;2022-10-16T07:07:00;100256.69;;;16.96;100.00
54854;BME280;40747;49.480;8.658;2022-10-16T07:09:25;100272.28;;;16.86;100.00
54854;BME280;40747;49.480;8.658;2022-10-16T07:11:51;100267.75;;;16.88;100.00
54854;BME280;40747;49.480;8.658;2022-10-16T07:14:18;100269.88;;;16.98;100.00
54854;BME280;40747;49.480;8.658;2022-10-16T07:16:45;100267.81;;;17.03;100.00
54854;BME280;40747;49.480;8.658;2022-10-16T07:19:10;100279.25;;;17.05;100.00
54854;BME280;40747;49.480;8.658;2022-10-16T07:21:38;100284.00;;;17.14;100.00
54854;BME280;40747;49.480;8.658;2022-10-16T07:24:06;100285.25;;;17.09;100.00
54854;BME280;40747;49.480;8.658;2022-10-16T07:26:33;100292.09;;;17.13;100.00
54854;BME280;40747;49.480;8.658;2022-10-16T07:28:59;100291.38;;;17.25;100.00
54854;BME280;40747;49.480;8.658;2022-10-16T07:31:26;100293.19;;;17.39;100.00
54854;BME280;40747;49.480;8.658;2022-10-16T07:33:51;100293.25;;;17.53;100.00
54854;BME280;40747;49.480;8.658;2022-10-16T07:36:19;100291.31;;;17.56;100.00
54854;BME280;40747;49.480;8.658;2022-10-16T07:38:45;100292.94;;;17.58;100.00
54854;BME280;40747;49.480;8.658;2022-10-16T07:41:13;100297.34;;;17.59;100.00
54854;BME280;40747;49.480;8.658;2022-10-16T07:43:38;100303.75;;;17.71;100.00
54854;BME280;40747;49.480;8.658;2022-10-16T07:46:04;100306.00;;;17.77;100.00
54854;BME280;40747;49.480;8.658;2022-10-16T07:48:31;100311.53;;;17.74;100.00
54854;BME280;40747;49.480;8.658;2022-10-16T07:50:58;100320.94;;;17.80;100.00
54854;BME280;40747;49.480;8.658;2022-10-16T07:53:24;100325.06;;;17.85;100.00
54854;BME280;40747;49.480;8.658;2022-10-16T07:55:49;100320.78;;;17.83;100.00
54854;BME280;40747;49.480;8.658;2022-10-16T07:58:15;100323.56;;;17.96;100.00
54854;BME280;40747;49.480;8.658;2022-10-16T08:00:40;100328.91;;;17.96;100.00
54854;BME280;40747;49.480;8.658;2022-10-16T08:03:05;100323.78;;;18.07;100.00
54854;BME280;40747;49.480;8.658;2022-10-16T08:05:32;100317.75;;;18.18;100.00
54854;BME280;40747;49.480;8.658;2022-10-16T08:07:58;100322.91;;;18.21;100.00
54854;BME280;40747;49.480;8.658;2022-10-16T08:10:25;100330.44;;;18.29;100.00
54854;BME280;40747;49.480;8.658;2022-10-16T08:12:51;100339.75;;;18.36;100.00
54854;BME280;40747;49.480;8.658;2022-10-16T08:15:17;100340.72;;;18.35;100.00
54854;BME280;40747;49.480;8.658;2022-10-16T08:17:42;100339.56;;;18.39;100.00
54854;BME280;40747;49.480;8.658;2022-10-16T08:20:08;100338.41;;;18.43;100.00
54854;BME280;40747;49.480;8.658;2022-10-16T08:22:33;100339.75;;;18.50;100.00
54854;BME280;40747;49.480;8.658;2022-10-16T08:24:59;100343.44;;;18.62;100.00
54854;BME280;40747;49.480;8.658;2022-10-16T08:27:24;100328.25;;;18.63;100.00
54854;BME280;40747;49.480;8.658;2022-10-16T08:29:49;100348.28;;;18.70;100.00
54854;BME280;40747;49.480;8.658;2022-10-16T08:32:15;100346.00;;;18.64;100.00
54854;BME280;40747;49.480;8.658;2022-10-16T08:34:40;100339.50;;;18.68;100.00
54854;BME280;40747;49.480;8.658;2022-10-16T08:37:06;100344.53;;;18.73;100.00
54854;BME280;40747;49.480;8.658;2022-10-16T08:39:33;100350.44;;;18.78;100.00
54854;BME280;40747;49.480;8.658;2022-10-16T08:42:29;100357.59;;;18.63;100.00
54854;BME280;40747;49.480;8.658;2022-10-16T08:45:21;100354.66;;;18.67;100.00
54854;BME280;40747;49.480;8.658;2022-10-16T08:47:55;100352.09;;;18.66;100.00
54854;BME280;40747;49.480;8.658;2022-10-16T08:50:27;100354.38;;;18.72;100.00
54854;BME280;40747;49.480;8.658;2022-10-16T08:52:53;100365.50;;;18.79;100.00
54854;BME280;40747;49.480;8.658;2022-10-16T08:55:32;100359.56;;;18.88;100.00
54854;BME280;40747;49.480;8.658;2022-10-16T08:58:00;100367.19;;;18.94;100.00
54854;BME280;40747;49.480;8.658;2022-10-16T09:00:26;100407.41;;;18.91;100.00
54854;BME280;40747;49.480;8.658;2022-10-16T09:06:07;100478.88;;;18.28;100.00
54854;BME280;40747;49.480;8.658;2022-10-16T09:11:19;100499.22;;;18.15;100.00
54854;BME280;40747;49.480;8.658;2022-10-16T09:14:32;100461.28;;;18.40;100.00
54854;BME280;40747;49.480;8.658;2022-10-16T09:17:29;100432.53;;;18.45;100.00
54854;BME280;40747;49.480;8.658;2022-10-16T09:22:37;100448.34;;;17.73;100.00
54854;BME280;40747;49.480;8.658;2022-10-16T09:25:13;100446.50;;;17.90;100.00
54854;BME280;40747;49.480;8.658;2022-10-16T09:27:39;100451.25;;;18.15;100.00
54854;BME280;40747;49.480;8.658;2022-10-16T09:30:19;100448.03;;;18.67;100.00
54854;BME280;40747;49.480;8.658;2022-10-16T09:32:47;100435.44;;;18.98;100.00
54854;BME280;40747;49.480;8.658;2022-10-16T09:35:17;100444.47;;;19.10;100.00
54854;BME280;40747;49.480;8.658;2022-10-16T09:37:45;100433.16;;;19.34;100.00
54854;BME280;40747;49.480;8.658;2022-10-16T09:40:44;100431.13;;;19.38;100.00
54854;BME280;40747;49.480;8.658;2022-10-16T09:45:38;100405.97;;;19.55;100.00
54854;BME280;40747;49.480;8.658;2022-10-16T09:48:11;100425.13;;;19.74;100.00
54854;BME280;40747;49.480;8.658;2022-10-16T09:50:37;100424.22;;;19.88;100.00
54854;BME280;40747;49.480;8.658;2022-10-16T09:53:14;100424.47;;;19.85;100.00
54854;BME280;40747;49.480;8.658;2022-10-16T09:55:53;100418.59;;;19.93;100.00
54854;BME280;40747;49.480;8.658;2022-10-16T09:58:21;100429.19;;;20.07;100.00
54854;BME280;40747;49.480;8.658;2022-10-16T10:00:50;100435.94;;;20.13;100.00
54854;BME280;40747;49.480;8.658;2022-10-16T10:03:37;100438.38;;;20.16;100.00
54854;BME280;40747;49.480;8.658;2022-10-16T10:06:24;100431.00;;;20.20;100.00
54854;BME280;40747;49.480;8.658;2022-10-16T10:08:57;100436.13;;;20.23;100.00
54854;BME280;40747;49.480;8.658;2022-10-16T10:11:43;100439.03;;;20.07;99.78
54854;BME280;40747;49.480;8.658;2022-10-16T10:14:17;100441.19;;;20.14;100.00
54854;BME280;40747;49.480;8.658;2022-10-16T10:16:43;100438.50;;;20.14;99.70
54854;BME280;40747;49.480;8.658;2022-10-16T10:19:17;100424.47;;;20.11;100.00
54854;BME280;40747;49.480;8.658;2022-10-16T10:21:42;100432.19;;;20.16;100.00
54854;BME280;40747;49.480;8.658;2022-10-16T10:24:16;100432.38;;;20.25;96.81
54854;BME280;40747;49.480;8.658;2022-10-16T10:26:49;100423.84;;;20.07;98.87
54854;BME280;40747;49.480;8.658;2022-10-16T10:32:31;100441.06;;;20.16;100.00
54854;BME280;40747;49.480;8.658;2022-10-16T10:35:21;100443.31;;;20.09;99.75
54854;BME280;40747;49.480;8.658;2022-10-16T10:46:15;100428.09;;;20.87;95.37
54854;BME280;40747;49.480;8.658;2022-10-16T10:49:09;100415.38;;;21.15;98.52
54854;BME280;40747;49.480;8.658;2022-10-16T10:54:22;100429.53;;;21.53;88.78
54854;BME280;40747;49.480;8.658;2022-10-16T10:57:02;100418.81;;;21.53;87.88
54854;BME280;40747;49.480;8.658;2022-10-16T11:02:35;100415.28;;;21.88;87.46
54854;BME280;40747;49.480;8.658;2022-10-16T11:10:44;100423.84;;;21.82;87.18
54854;BME280;40747;49.480;8.658;2022-10-16T11:13:23;100424.63;;;22.06;84.62
54854;BME280;40747;49.480;8.658;2022-10-16T11:15:53;100422.09;;;22.16;86.21
54854;BME280;40747;49.480;8.658;2022-10-16T11:18:30;100420.13;;;22.18;85.65
54854;BME280;40747;49.480;8.658;2022-10-16T11:21:02;100419.78;;;22.34;86.02
54854;BME280;40747;49.480;8.658;2022-10-16T11:23:41;100421.69;;;22.09;85.45
54854;BME280;40747;49.480;8.658;2022-10-16T11:26:16;100427.53;;;21.92;87.15
54854;BME280;40747;49.480;8.658;2022-10-16T11:28:49;100434.78;;;21.79;88.29
54854;BME280;40747;49.480;8.658;2022-10-16T11:31:28;100430.78;;;21.84;87.87
54854;BME280;40747;49.480;8.658;2022-10-16T11:34:05;100442.81;;;21.79;86.71
54854;BME280;40747;49.480;8.658;2022-10-16T11:36:34;100436.41;;;21.92;85.56
54854;BME280;40747;49.480;8.658;2022-10-16T11:39:26;100439.03;;;22.28;85.82
54854;BME280;40747;49.480;8.658;2022-10-16T11:44:57;100423.84;;;22.51;86.29
54854;BME280;40747;49.480;8.658;2022-10-16T11:47:40;100417.63;;;22.51;84.95
54854;BME280;40747;49.480;8.658;2022-10-16T11:50:34;100417.72;;;22.49;84.58
54854;BME280;40747;49.480;8.658;2022-10-16T11:55:49;100420.44;;;22.38;85.20
54854;BME280;40747;49.480;8.658;2022-10-16T12:03:47;100435.75;;;21.77;87.75
54854;BME280;40747;49.480;8.658;2022-10-16T12:08:53;100432.25;;;21.88;87.57
54854;BME280;40747;49.480;8.658;2022-10-16T12:11:36;100426.84;;;22.13;85.29
54854;BME280;40747;49.480;8.658;2022-10-16T12:16:33;100409.44;;;22.64;83.43
54854;BME280;40747;49.480;8.658;2022-10-16T12:19:15;100415.41;;;22.67;85.70
54854;BME280;40747;49.480;8.658;2022-10-16T12:21:42;100430.03;;;22.29;84.43
54854;BME280;40747;49.480;8.658;2022-10-16T12:24:22;100431.94;;;22.16;86.11
54854;BME280;40747;49.480;8.658;2022-10-16T12:26:52;100421.78;;;21.97;86.24
54854;BME280;40747;49.480;8.658;2022-10-16T12:29:40;100421.56;;;22.00;86.61
54854;BME280;40747;49.480;8.658;2022-10-16T12:34:51;100418.25;;;21.96;87.67
54854;BME280;40747;49.480;8.658;2022-10-16T12:37:29;100409.28;;;22.08;88.16
54854;BME280;40747;49.480;8.658;2022-10-16T12:39:56;100414.63;;;22.20;87.52
54854;BME280;40747;49.480;8.658;2022-10-16T12:44:51;100417.56;;;22.28;84.38
54854;BME280;40747;49.480;8.658;2022-10-16T12:49:58;100403.22;;;22.40;85.67
54854;BME280;40747;49.480;8.658;2022-10-16T12:52:34;100404.81;;;21.85;84.95
54854;BME280;40747;49.480;8.658;2022-10-16T12:54:59;100409.88;;;21.65;87.81
54854;BME280;40747;49.480;8.658;2022-10-16T13:00:32;100404.09;;;21.94;84.27
54854;BME280;40747;49.480;8.658;2022-10-16T13:06:13;100409.75;;;22.02;83.49
54854;BME280;40747;49.480;8.658;2022-10-16T13:09:09;100409.03;;;22.12;81.86
54854;BME280;40747;49.480;8.658;2022-10-16T13:17:40;100413.94;;;22.52;82.39
54854;BME280;40747;49.480;8.658;2022-10-16T13:25:32;100427.13;;;22.55;82.35
54854;BME280;40747;49.480;8.658;2022-10-16T13:28:03;100426.00;;;22.35;81.88
54854;BME280;40747;49.480;8.658;2022-10-16T13:30:31;100426.84;;;22.24;84.10
54854;BME280;40747;49.480;8.658;2022-10-16T13:33:18;100424.63;;;22.06;83.00
54854;BME280;40747;49.480;8.658;2022-10-16T13:35:51;100427.28;;;21.95;84.09
54854;BME280;40747;49.480;8.658;2022-10-16T13:38:20;100438.16;;;21.69;85.29
54854;BME280;40747;49.480;8.658;2022-10-16T13:43:19;100435.31;;;21.59;86.29
54854;BME280;40747;49.480;8.658;2022-10-16T13:45:54;100419.75;;;21.65;87.83
54854;BME280;40747;49.480;8.658;2022-10-16T13:48:20;100429.75;;;21.63;89.07
54854;BME280;40747;49.480;8.658;2022-10-16T13:50:45;100444.44;;;21.57;88.04
54854;BME280;40747;49.480;8.658;2022-10-16T13:53:14;100441.59;;;21.47;87.13
54854;BME280;40747;49.480;8.658;2022-10-16T13:55:39;100427.19;;;21.48;87.67
54854;BME280;40747;49.480;8.658;2022-10-16T13:58:07;100412.44;;;21.67;88.70
54854;BME280;40747;49.480;8.658;2022-10-16T14:00:34;100412.78;;;21.62;89.06
54854;BME280;40747;49.480;8.658;2022-10-16T14:03:05;100418.44;;;21.70;88.58
54854;BME280;40747;49.480;8.658;2022-10-16T14:05:33;100428.56;;;21.78;91.49
54854;BME280;40747;49.480;8.658;2022-10-16T14:07:58;100439.81;;;21.83;90.61
54854;BME280;40747;49.480;8.658;2022-10-16T14:10:27;100449.66;;;21.83;91.93
54854;BME280;40747;49.480;8.658;2022-10-16T14:13:03;100436.63;;;21.78;90.60
54854;BME280;40747;49.480;8.658;2022-10-16T14:15:34;100427.81;;;21.76;92.73
54854;BME280;40747;49.480;8.658;2022-10-16T14:18:00;100429.41;;;21.79;89.88
54854;BME280;40747;49.480;8.658;2022-10-16T14:20:28;100426.94;;;21.64;89.84
54854;BME280;40747;49.480;8.658;2022-10-16T14:23:16;100412.00;;;21.49;90.73
54854;BME280;40747;49.480;8.658;2022-10-16T14:25:43;100423.34;;;21.52;90.62
54854;BME280;40747;49.480;8.658;2022-10-16T14:30:52;100429.75;;;21.63;88.99